Aviation Digital Data Service (ADDS)

Output produced by METARs form (0016 UTC 30 May 2020)
found at http://www.aviationweather.gov/metar/data/
 
METAR text: ZSHC 300000Z 11003MPS 5000 -SHRA BR SCT007 BKN020 19/18 Q1010 NOSIG
Conditions at: ZSHC (HANGZHOU/JIANQIA, CN) observed 0000 UTC 30 May 2020
Temperature: 19.0°C (66°F)
Dewpoint: 18.0°C (64°F) [RH = 94%]
Pressure (altimeter): 29.82 inches Hg (1010.0 mb)
Winds: from the ESE (110 degrees) at 7 MPH (6 knots; 3.1 m/s)
Visibility: 3 miles ( 5 km)
Ceiling: 2000 feet AGL
Clouds: scattered clouds at 700 feet AGL
broken clouds at 2000 feet AGL
Weather: -SHRA BR  (light rain showers, mist)

METAR text: ZSHC 292330Z 09003MPS 5000 -SHRA BR SCT007 BKN020 19/18 Q1010 NOSIG
Conditions at: ZSHC (HANGZHOU/JIANQIA, CN) observed 2330 UTC 29 May 2020
Temperature: 19.0°C (66°F)
Dewpoint: 18.0°C (64°F) [RH = 94%]
Pressure (altimeter): 29.82 inches Hg (1010.0 mb)
Winds: from the E (90 degrees) at 7 MPH (6 knots; 3.1 m/s)
Visibility: 3 miles ( 5 km)
Ceiling: 2000 feet AGL
Clouds: scattered clouds at 700 feet AGL
broken clouds at 2000 feet AGL
Weather: -SHRA BR  (light rain showers, mist)

METAR text: ZSHC 292300Z 09003MPS 060V130 6000 -SHRA FEW009 BKN020 19/18 Q1010 NOSIG
Conditions at: ZSHC (HANGZHOU/JIANQIA, CN) observed 2300 UTC 29 May 2020
Temperature: 19.0°C (66°F)
Dewpoint: 18.0°C (64°F) [RH = 94%]
Pressure (altimeter): 29.82 inches Hg (1010.0 mb)
Winds: from the E (90 degrees) at 7 MPH (6 knots; 3.1 m/s)
Visibility: 4 miles ( 6 km)
Ceiling: 2000 feet AGL
Clouds: few clouds at 900 feet AGL
broken clouds at 2000 feet AGL
Weather: -SHRA  (light rain showers)

METAR text: ZSHC 292230Z 10004MPS 070V130 6000 -RA FEW009 BKN020 19/18 Q1010 NOSIG
Conditions at: ZSHC (HANGZHOU/JIANQIA, CN) observed 2230 UTC 29 May 2020
Temperature: 19.0°C (66°F)
Dewpoint: 18.0°C (64°F) [RH = 94%]
Pressure (altimeter): 29.82 inches Hg (1010.0 mb)
Winds: from the E (100 degrees) at 9 MPH (8 knots; 4.1 m/s)
Visibility: 4 miles ( 6 km)
Ceiling: 2000 feet AGL
Clouds: few clouds at 900 feet AGL
broken clouds at 2000 feet AGL
Weather: -RA  (light rain)

METAR text: ZSHC 292200Z 10003MPS 7000 -RA FEW010 BKN020 19/18 Q1010 NOSIG
Conditions at: ZSHC (HANGZHOU/JIANQIA, CN) observed 2200 UTC 29 May 2020
Temperature: 19.0°C (66°F)
Dewpoint: 18.0°C (64°F) [RH = 94%]
Pressure (altimeter): 29.82 inches Hg (1010.0 mb)
Winds: from the E (100 degrees) at 7 MPH (6 knots; 3.1 m/s)
Visibility: 4 miles ( 7 km)
Ceiling: 2000 feet AGL
Clouds: few clouds at 1000 feet AGL
broken clouds at 2000 feet AGL
Weather: -RA  (light rain)

METAR text: ZSHC 292130Z 10002MPS 070V150 5000 -SHRA BR BKN008 BKN020 19/18 Q1010 NOSIG
Conditions at: ZSHC (HANGZHOU/JIANQIA, CN) observed 2130 UTC 29 May 2020
Temperature: 19.0°C (66°F)
Dewpoint: 18.0°C (64°F) [RH = 94%]
Pressure (altimeter): 29.82 inches Hg (1010.0 mb)
Winds: from the E (100 degrees) at 5 MPH (4 knots; 2.1 m/s)
Visibility: 3 miles ( 5 km)
Ceiling: 800 feet AGL
Clouds: broken clouds at 800 feet AGL
broken clouds at 2000 feet AGL
Weather: -SHRA BR  (light rain showers, mist)

METAR text: ZSHC 292100Z 08003MPS 5000 -SHRA BR BKN008 BKN020 19/18 Q1010 NOSIG
Conditions at: ZSHC (HANGZHOU/JIANQIA, CN) observed 2100 UTC 29 May 2020
Temperature: 19.0°C (66°F)
Dewpoint: 18.0°C (64°F) [RH = 94%]
Pressure (altimeter): 29.82 inches Hg (1010.0 mb)
Winds: from the E (80 degrees) at 7 MPH (6 knots; 3.1 m/s)
Visibility: 3 miles ( 5 km)
Ceiling: 800 feet AGL
Clouds: broken clouds at 800 feet AGL
broken clouds at 2000 feet AGL
Weather: -SHRA BR  (light rain showers, mist)

METAR text: ZSHC 292030Z 09003MPS 060V120 6000 -SHRA BKN008 BKN017 19/18 Q1010 NOSIG
Conditions at: ZSHC (HANGZHOU/JIANQIA, CN) observed 2030 UTC 29 May 2020
Temperature: 19.0°C (66°F)
Dewpoint: 18.0°C (64°F) [RH = 94%]
Pressure (altimeter): 29.82 inches Hg (1010.0 mb)
Winds: from the E (90 degrees) at 7 MPH (6 knots; 3.1 m/s)
Visibility: 4 miles ( 6 km)
Ceiling: 800 feet AGL
Clouds: broken clouds at 800 feet AGL
broken clouds at 1700 feet AGL
Weather: -SHRA  (light rain showers)

METAR text: ZSHC 292000Z 09004MPS 6000 -SHRA SCT008 BKN017 19/19 Q1009 NOSIG
Conditions at: ZSHC (HANGZHOU/JIANQIA, CN) observed 2000 UTC 29 May 2020
Temperature: 19.0°C (66°F)
Dewpoint: 19.0°C (66°F) [RH = 100%]
Pressure (altimeter): 29.79 inches Hg (1009.0 mb)
Winds: from the E (90 degrees) at 9 MPH (8 knots; 4.1 m/s)
Visibility: 4 miles ( 6 km)
Ceiling: 1700 feet AGL
Clouds: scattered clouds at 800 feet AGL
broken clouds at 1700 feet AGL
Weather: -SHRA  (light rain showers)

METAR text: ZSHC 291930Z 08005MPS 6000 -SHRA SCT008 BKN017 19/18 Q1010 NOSIG
Conditions at: ZSHC (HANGZHOU/JIANQIA, CN) observed 1930 UTC 29 May 2020
Temperature: 19.0°C (66°F)
Dewpoint: 18.0°C (64°F) [RH = 94%]
Pressure (altimeter): 29.82 inches Hg (1010.0 mb)
Winds: from the E (80 degrees) at 12 MPH (10 knots; 5.1 m/s)
Visibility: 4 miles ( 6 km)
Ceiling: 1700 feet AGL
Clouds: scattered clouds at 800 feet AGL
broken clouds at 1700 feet AGL
Weather: -SHRA  (light rain showers)

METAR text: ZSHC 291900Z 08005MPS 7000 -SHRA SCT009 BKN017 19/18 Q1010 NOSIG
Conditions at: ZSHC (HANGZHOU/JIANQIA, CN) observed 1900 UTC 29 May 2020
Temperature: 19.0°C (66°F)
Dewpoint: 18.0°C (64°F) [RH = 94%]
Pressure (altimeter): 29.82 inches Hg (1010.0 mb)
Winds: from the E (80 degrees) at 12 MPH (10 knots; 5.1 m/s)
Visibility: 4 miles ( 7 km)
Ceiling: 1700 feet AGL
Clouds: scattered clouds at 900 feet AGL
broken clouds at 1700 feet AGL
Weather: -SHRA  (light rain showers)

METAR text: ZSHC 291830Z 08006MPS 6000 -SHRA SCT009 BKN017 OVC040 19/18 Q1010 NOSIG
Conditions at: ZSHC (HANGZHOU/JIANQIA, CN) observed 1830 UTC 29 May 2020
Temperature: 19.0°C (66°F)
Dewpoint: 18.0°C (64°F) [RH = 94%]
Pressure (altimeter): 29.82 inches Hg (1010.0 mb)
Winds: from the E (80 degrees) at 14 MPH (12 knots; 6.2 m/s)
Visibility: 4 miles ( 6 km)
Ceiling: 1700 feet AGL
Clouds: scattered clouds at 900 feet AGL
broken clouds at 1700 feet AGL
overcast cloud deck at 4000 feet AGL
Weather: -SHRA  (light rain showers)

METAR text: ZSHC 291800Z 09005MPS 5000 -SHRA BR SCT009 BKN017 OVC040 19/18 Q1010 NOSIG
Conditions at: ZSHC (HANGZHOU/JIANQIA, CN) observed 1800 UTC 29 May 2020
Temperature: 19.0°C (66°F)
Dewpoint: 18.0°C (64°F) [RH = 94%]
Pressure (altimeter): 29.82 inches Hg (1010.0 mb)
Winds: from the E (90 degrees) at 12 MPH (10 knots; 5.1 m/s)
Visibility: 3 miles ( 5 km)
Ceiling: 1700 feet AGL
Clouds: scattered clouds at 900 feet AGL
broken clouds at 1700 feet AGL
overcast cloud deck at 4000 feet AGL
Weather: -SHRA BR  (light rain showers, mist)

METAR text: ZSHC 291730Z 08006MPS 7000 -SHRA SCT009 BKN023 OVC040 19/18 Q1011 NOSIG
Conditions at: ZSHC (HANGZHOU/JIANQIA, CN) observed 1730 UTC 29 May 2020
Temperature: 19.0°C (66°F)
Dewpoint: 18.0°C (64°F) [RH = 94%]
Pressure (altimeter): 29.85 inches Hg (1011.0 mb)
Winds: from the E (80 degrees) at 14 MPH (12 knots; 6.2 m/s)
Visibility: 4 miles ( 7 km)
Ceiling: 2300 feet AGL
Clouds: scattered clouds at 900 feet AGL
broken clouds at 2300 feet AGL
overcast cloud deck at 4000 feet AGL
Weather: -SHRA  (light rain showers)

METAR text: ZSHC 291700Z 06006MPS 7000 -SHRA SCT009 BKN023 OVC040 19/18 Q1012 NOSIG
Conditions at: ZSHC (HANGZHOU/JIANQIA, CN) observed 1700 UTC 29 May 2020
Temperature: 19.0°C (66°F)
Dewpoint: 18.0°C (64°F) [RH = 94%]
Pressure (altimeter): 29.88 inches Hg (1012.0 mb)
Winds: from the ENE (60 degrees) at 14 MPH (12 knots; 6.2 m/s)
Visibility: 4 miles ( 7 km)
Ceiling: 2300 feet AGL
Clouds: scattered clouds at 900 feet AGL
broken clouds at 2300 feet AGL
overcast cloud deck at 4000 feet AGL
Weather: -SHRA  (light rain showers)

METAR text: ZSHC 291630Z 05004MPS 360V080 5000 -SHRA BR SCT009 BKN023 OVC040 18/18 Q1013 NOSIG
Conditions at: ZSHC (HANGZHOU/JIANQIA, CN) observed 1630 UTC 29 May 2020
Temperature: 18.0°C (64°F)
Dewpoint: 18.0°C (64°F) [RH = 100%]
Pressure (altimeter): 29.91 inches Hg (1013.0 mb)
Winds: from the NE (50 degrees) at 9 MPH (8 knots; 4.1 m/s)
Visibility: 3 miles ( 5 km)
Ceiling: 2300 feet AGL
Clouds: scattered clouds at 900 feet AGL
broken clouds at 2300 feet AGL
overcast cloud deck at 4000 feet AGL
Weather: -SHRA BR  (light rain showers, mist)

METAR text: ZSHC 291600Z 06005MPS 7000 -SHRA SCT009 BKN023 OVC040 18/17 Q1013 RESHRA BECMG TL1650 SHRA
Conditions at: ZSHC (HANGZHOU/JIANQIA, CN) observed 1600 UTC 29 May 2020
Temperature: 18.0°C (64°F)
Dewpoint: 17.0°C (63°F) [RH = 94%]
Pressure (altimeter): 29.91 inches Hg (1013.0 mb)
Winds: from the ENE (60 degrees) at 12 MPH (10 knots; 5.1 m/s)
Visibility: 4 miles ( 7 km)
Ceiling: 2300 feet AGL
Clouds: scattered clouds at 900 feet AGL
broken clouds at 2300 feet AGL
overcast cloud deck at 4000 feet AGL
Weather: -SHRA  (light rain showers)

METAR text: ZSHC 291530Z 07006MPS 5000 SHRA BR SCT009 BKN023 OVC040 19/18 Q1013 NOSIG
Conditions at: ZSHC (HANGZHOU/JIANQIA, CN) observed 1530 UTC 29 May 2020
Temperature: 19.0°C (66°F)
Dewpoint: 18.0°C (64°F) [RH = 94%]
Pressure (altimeter): 29.91 inches Hg (1013.0 mb)
Winds: from the ENE (70 degrees) at 14 MPH (12 knots; 6.2 m/s)
Visibility: 3 miles ( 5 km)
Ceiling: 2300 feet AGL
Clouds: scattered clouds at 900 feet AGL
broken clouds at 2300 feet AGL
overcast cloud deck at 4000 feet AGL
Weather: SHRA BR  (rain showers, mist)

METAR text: ZSHC 291500Z 07007MPS 5000 SHRA BR SCT009 BKN023 OVC040 19/17 Q1013 BECMG TL1600 -SHRA
Conditions at: ZSHC (HANGZHOU/JIANQIA, CN) observed 1500 UTC 29 May 2020
Temperature: 19.0°C (66°F)
Dewpoint: 17.0°C (63°F) [RH = 88%]
Pressure (altimeter): 29.91 inches Hg (1013.0 mb)
Winds: from the ENE (70 degrees) at 16 MPH (14 knots; 7.2 m/s)
Visibility: 3 miles ( 5 km)
Ceiling: 2300 feet AGL
Clouds: scattered clouds at 900 feet AGL
broken clouds at 2300 feet AGL
overcast cloud deck at 4000 feet AGL
Weather: SHRA BR  (rain showers, mist)

METAR text: ZSHC 291430Z 07007MPS 5000 SHRA BR SCT009 BKN023 OVC040 19/18 Q1013 NOSIG
Conditions at: ZSHC (HANGZHOU/JIANQIA, CN) observed 1430 UTC 29 May 2020
Temperature: 19.0°C (66°F)
Dewpoint: 18.0°C (64°F) [RH = 94%]
Pressure (altimeter): 29.91 inches Hg (1013.0 mb)
Winds: from the ENE (70 degrees) at 16 MPH (14 knots; 7.2 m/s)
Visibility: 3 miles ( 5 km)
Ceiling: 2300 feet AGL
Clouds: scattered clouds at 900 feet AGL
broken clouds at 2300 feet AGL
overcast cloud deck at 4000 feet AGL
Weather: SHRA BR  (rain showers, mist)

METAR text: ZSHC 291400Z 06008MPS 5000 -SHRA BR SCT009 BKN023 OVC040 19/18 Q1013 RESHRA NOSIG
Conditions at: ZSHC (HANGZHOU/JIANQIA, CN) observed 1400 UTC 29 May 2020
Temperature: 19.0°C (66°F)
Dewpoint: 18.0°C (64°F) [RH = 94%]
Pressure (altimeter): 29.91 inches Hg (1013.0 mb)
Winds: from the ENE (60 degrees) at 18 MPH (16 knots; 8.2 m/s)
Visibility: 3 miles ( 5 km)
Ceiling: 2300 feet AGL
Clouds: scattered clouds at 900 feet AGL
broken clouds at 2300 feet AGL
overcast cloud deck at 4000 feet AGL
Weather: -SHRA BR  (light rain showers, mist)

METAR text: ZSHC 291330Z 06009MPS 5000 SHRA BR SCT009 BKN017 OVC040 19/18 Q1012 NOSIG
Conditions at: ZSHC (HANGZHOU/JIANQIA, CN) observed 1330 UTC 29 May 2020
Temperature: 19.0°C (66°F)
Dewpoint: 18.0°C (64°F) [RH = 94%]
Pressure (altimeter): 29.88 inches Hg (1012.0 mb)
Winds: from the ENE (60 degrees) at 20 MPH (17 knots; 8.7 m/s)
Visibility: 3 miles ( 5 km)
Ceiling: 1700 feet AGL
Clouds: scattered clouds at 900 feet AGL
broken clouds at 1700 feet AGL
overcast cloud deck at 4000 feet AGL
Weather: SHRA BR  (rain showers, mist)

METAR text: ZSHC 291300Z 06009G14MPS 4000 SHRA BR SCT009 BKN017 OVC040 19/17 Q1012 TEMPO FM1330 +SHRA
Conditions at: ZSHC (HANGZHOU/JIANQIA, CN) observed 1300 UTC 29 May 2020
Temperature: 19.0°C (66°F)
Dewpoint: 17.0°C (63°F) [RH = 88%]
Pressure (altimeter): 29.88 inches Hg (1012.0 mb)
Winds: from the ENE (60 degrees) at 20 MPH (17 knots; 8.7 m/s)
gusting to 31 MPH (27 knots; 13.9 m/s)
Visibility: 2.49 miles (4.01 km)
Ceiling: 1700 feet AGL
Clouds: scattered clouds at 900 feet AGL
broken clouds at 1700 feet AGL
overcast cloud deck at 4000 feet AGL
Weather: SHRA BR  (rain showers, mist)

METAR text: ZSHC 291230Z 06007MPS 4000 SHRA BR SCT009 BKN017 OVC040 19/17 Q1012 NOSIG
Conditions at: ZSHC (HANGZHOU/JIANQIA, CN) observed 1230 UTC 29 May 2020
Temperature: 19.0°C (66°F)
Dewpoint: 17.0°C (63°F) [RH = 88%]
Pressure (altimeter): 29.88 inches Hg (1012.0 mb)
Winds: from the ENE (60 degrees) at 16 MPH (14 knots; 7.2 m/s)
Visibility: 2.49 miles (4.01 km)
Ceiling: 1700 feet AGL
Clouds: scattered clouds at 900 feet AGL
broken clouds at 1700 feet AGL
overcast cloud deck at 4000 feet AGL
Weather: SHRA BR  (rain showers, mist)

METAR text: ZSHC 291200Z 07007MPS 6000 SHRA SCT009 BKN017 OVC040 19/18 Q1011 BECMG TL1250 -SHRA
Conditions at: ZSHC (HANGZHOU/JIANQIA, CN) observed 1200 UTC 29 May 2020
Temperature: 19.0°C (66°F)
Dewpoint: 18.0°C (64°F) [RH = 94%]
Pressure (altimeter): 29.85 inches Hg (1011.0 mb)
Winds: from the ENE (70 degrees) at 16 MPH (14 knots; 7.2 m/s)
Visibility: 4 miles ( 6 km)
Ceiling: 1700 feet AGL
Clouds: scattered clouds at 900 feet AGL
broken clouds at 1700 feet AGL
overcast cloud deck at 4000 feet AGL
Weather: SHRA  (rain showers)

METAR text: ZSHC 291130Z 06004MPS 6000 -SHRA SCT017 BKN040 19/18 Q1011 NOSIG
Conditions at: ZSHC (HANGZHOU/JIANQIA, CN) observed 1130 UTC 29 May 2020
Temperature: 19.0°C (66°F)
Dewpoint: 18.0°C (64°F) [RH = 94%]
Pressure (altimeter): 29.85 inches Hg (1011.0 mb)
Winds: from the ENE (60 degrees) at 9 MPH (8 knots; 4.1 m/s)
Visibility: 4 miles ( 6 km)
Ceiling: 4000 feet AGL
Clouds: scattered clouds at 1700 feet AGL
broken clouds at 4000 feet AGL
Weather: -SHRA  (light rain showers)

METAR text: ZSHC 291100Z 06005MPS 7000 -SHRA SCT023 BKN040 20/18 Q1011 NOSIG
Conditions at: ZSHC (HANGZHOU/JIANQIA, CN) observed 1100 UTC 29 May 2020
Temperature: 20.0°C (68°F)
Dewpoint: 18.0°C (64°F) [RH = 88%]
Pressure (altimeter): 29.85 inches Hg (1011.0 mb)
Winds: from the ENE (60 degrees) at 12 MPH (10 knots; 5.1 m/s)
Visibility: 4 miles ( 7 km)
Ceiling: 4000 feet AGL
Clouds: scattered clouds at 2300 feet AGL
broken clouds at 4000 feet AGL
Weather: -SHRA  (light rain showers)

METAR text: ZSHC 291030Z VRB01MPS 9999 -RA BKN040 21/15 Q1011 NOSIG
Conditions at: ZSHC (HANGZHOU/JIANQIA, CN) observed 1030 UTC 29 May 2020
Temperature: 21.0°C (70°F)
Dewpoint: 15.0°C (59°F) [RH = 69%]
Pressure (altimeter): 29.85 inches Hg (1011.0 mb)
Winds: variable direction winds at 2 MPH (2 knots; 1.0 m/s)
Visibility: 6 or more miles (10+ km)
Ceiling: 4000 feet AGL
Clouds: broken clouds at 4000 feet AGL
Weather: -RA  (light rain)

METAR text: ZSHC 291000Z 07003MPS 9999 -RA BKN040 22/15 Q1010 NOSIG
Conditions at: ZSHC (HANGZHOU/JIANQIA, CN) observed 1000 UTC 29 May 2020
Temperature: 22.0°C (72°F)
Dewpoint: 15.0°C (59°F) [RH = 65%]
Pressure (altimeter): 29.82 inches Hg (1010.0 mb)
Winds: from the ENE (70 degrees) at 7 MPH (6 knots; 3.1 m/s)
Visibility: 6 or more miles (10+ km)
Ceiling: 4000 feet AGL
Clouds: broken clouds at 4000 feet AGL
Weather: -RA  (light rain)

METAR text: ZSHC 290930Z 07007MPS 9999 -RA BKN040 21/15 Q1010 NOSIG
Conditions at: ZSHC (HANGZHOU/JIANQIA, CN) observed 0930 UTC 29 May 2020
Temperature: 21.0°C (70°F)
Dewpoint: 15.0°C (59°F) [RH = 69%]
Pressure (altimeter): 29.82 inches Hg (1010.0 mb)
Winds: from the ENE (70 degrees) at 16 MPH (14 knots; 7.2 m/s)
Visibility: 6 or more miles (10+ km)
Ceiling: 4000 feet AGL
Clouds: broken clouds at 4000 feet AGL
Weather: -RA  (light rain)

METAR text: ZSHC 290900Z 11005MPS 9999 -RA NSC 22/14 Q1011 NOSIG
Conditions at: ZSHC (HANGZHOU/JIANQIA, CN) observed 0900 UTC 29 May 2020
Temperature: 22.0°C (72°F)
Dewpoint: 14.0°C (57°F) [RH = 60%]
Pressure (altimeter): 29.85 inches Hg (1011.0 mb)
Winds: from the ESE (110 degrees) at 12 MPH (10 knots; 5.1 m/s)
Visibility: 6 or more miles (10+ km)
Ceiling: at least 12,000 feet AGL
Clouds: sky clear below 12,000 feet AGL
Weather: -RA  (light rain)

METAR text: ZSHC 290830Z 13005MPS 080V170 9999 -RA NSC 24/16 Q1011 NOSIG
Conditions at: ZSHC (HANGZHOU/JIANQIA, CN) observed 0830 UTC 29 May 2020
Temperature: 24.0°C (75°F)
Dewpoint: 16.0°C (61°F) [RH = 61%]
Pressure (altimeter): 29.85 inches Hg (1011.0 mb)
Winds: from the SE (130 degrees) at 12 MPH (10 knots; 5.1 m/s)
Visibility: 6 or more miles (10+ km)
Ceiling: at least 12,000 feet AGL
Clouds: sky clear below 12,000 feet AGL
Weather: -RA  (light rain)

METAR text: ZSHC 290800Z 11003MPS 070V130 9999 -RA NSC 24/19 Q1011 NOSIG
Conditions at: ZSHC (HANGZHOU/JIANQIA, CN) observed 0800 UTC 29 May 2020
Temperature: 24.0°C (75°F)
Dewpoint: 19.0°C (66°F) [RH = 74%]
Pressure (altimeter): 29.85 inches Hg (1011.0 mb)
Winds: from the ESE (110 degrees) at 7 MPH (6 knots; 3.1 m/s)
Visibility: 6 or more miles (10+ km)
Ceiling: at least 12,000 feet AGL
Clouds: sky clear below 12,000 feet AGL
Weather: -RA  (light rain)

METAR text: ZSHC 290730Z 09002MPS 9999 -RA SCT046 24/18 Q1011 NOSIG
Conditions at: ZSHC (HANGZHOU/JIANQIA, CN) observed 0730 UTC 29 May 2020
Temperature: 24.0°C (75°F)
Dewpoint: 18.0°C (64°F) [RH = 69%]
Pressure (altimeter): 29.85 inches Hg (1011.0 mb)
Winds: from the E (90 degrees) at 5 MPH (4 knots; 2.1 m/s)
Visibility: 6 or more miles (10+ km)
Ceiling: at least 12,000 feet AGL
Clouds: scattered clouds at 4600 feet AGL
Weather: -RA  (light rain)

METAR text: ZSHC 290700Z 08003MPS 9999 -RA SCT036 24/20 Q1011 NOSIG
Conditions at: ZSHC (HANGZHOU/JIANQIA, CN) observed 0700 UTC 29 May 2020
Temperature: 24.0°C (75°F)
Dewpoint: 20.0°C (68°F) [RH = 78%]
Pressure (altimeter): 29.85 inches Hg (1011.0 mb)
Winds: from the E (80 degrees) at 7 MPH (6 knots; 3.1 m/s)
Visibility: 6 or more miles (10+ km)
Ceiling: at least 12,000 feet AGL
Clouds: scattered clouds at 3600 feet AGL
Weather: -RA  (light rain)

METAR text: ZSHC 290630Z 07003MPS 9999 -RA SCT036 25/18 Q1012 NOSIG
Conditions at: ZSHC (HANGZHOU/JIANQIA, CN) observed 0630 UTC 29 May 2020
Temperature: 25.0°C (77°F)
Dewpoint: 18.0°C (64°F) [RH = 65%]
Pressure (altimeter): 29.88 inches Hg (1012.0 mb)
Winds: from the ENE (70 degrees) at 7 MPH (6 knots; 3.1 m/s)
Visibility: 6 or more miles (10+ km)
Ceiling: at least 12,000 feet AGL
Clouds: scattered clouds at 3600 feet AGL
Weather: -RA  (light rain)

METAR text: ZSHC 290600Z 06003MPS 9999 -RA SCT040 26/17 Q1011 NOSIG
Conditions at: ZSHC (HANGZHOU/JIANQIA, CN) observed 0600 UTC 29 May 2020
Temperature: 26.0°C (79°F)
Dewpoint: 17.0°C (63°F) [RH = 58%]
Pressure (altimeter): 29.85 inches Hg (1011.0 mb)
Winds: from the ENE (60 degrees) at 7 MPH (6 knots; 3.1 m/s)
Visibility: 6 or more miles (10+ km)
Ceiling: at least 12,000 feet AGL
Clouds: scattered clouds at 4000 feet AGL
Weather: -RA  (light rain)

METAR text: ZSHC 290530Z 09004MPS 9999 SCT040 26/15 Q1010 NOSIG
Conditions at: ZSHC (HANGZHOU/JIANQIA, CN) observed 0530 UTC 29 May 2020
Temperature: 26.0°C (79°F)
Dewpoint: 15.0°C (59°F) [RH = 51%]
Pressure (altimeter): 29.82 inches Hg (1010.0 mb)
Winds: from the E (90 degrees) at 9 MPH (8 knots; 4.1 m/s)
Visibility: 6 or more miles (10+ km)
Ceiling: at least 12,000 feet AGL
Clouds: scattered clouds at 4000 feet AGL
Weather: no significant weather observed at this time

METAR text: ZSHC 290500Z 11004MPS 080V160 9999 SCT040 27/15 Q1010 NOSIG
Conditions at: ZSHC (HANGZHOU/JIANQIA, CN) observed 0500 UTC 29 May 2020
Temperature: 27.0°C (81°F)
Dewpoint: 15.0°C (59°F) [RH = 48%]
Pressure (altimeter): 29.82 inches Hg (1010.0 mb)
Winds: from the ESE (110 degrees) at 9 MPH (8 knots; 4.1 m/s)
Visibility: 6 or more miles (10+ km)
Ceiling: at least 12,000 feet AGL
Clouds: scattered clouds at 4000 feet AGL
Weather: no significant weather observed at this time

METAR text: ZSHC 290430Z 12004MPS 080V140 9999 SCT040 27/15 Q1010 NOSIG
Conditions at: ZSHC (HANGZHOU/JIANQIA, CN) observed 0430 UTC 29 May 2020
Temperature: 27.0°C (81°F)
Dewpoint: 15.0°C (59°F) [RH = 48%]
Pressure (altimeter): 29.82 inches Hg (1010.0 mb)
Winds: from the ESE (120 degrees) at 9 MPH (8 knots; 4.1 m/s)
Visibility: 6 or more miles (10+ km)
Ceiling: at least 12,000 feet AGL
Clouds: scattered clouds at 4000 feet AGL
Weather: no significant weather observed at this time

METAR text: ZSHC 290400Z 11003MPS 070V140 9999 SCT040 27/15 Q1011 NOSIG
Conditions at: ZSHC (HANGZHOU/JIANQIA, CN) observed 0400 UTC 29 May 2020
Temperature: 27.0°C (81°F)
Dewpoint: 15.0°C (59°F) [RH = 48%]
Pressure (altimeter): 29.85 inches Hg (1011.0 mb)
Winds: from the ESE (110 degrees) at 7 MPH (6 knots; 3.1 m/s)
Visibility: 6 or more miles (10+ km)
Ceiling: at least 12,000 feet AGL
Clouds: scattered clouds at 4000 feet AGL
Weather: no significant weather observed at this time

METAR text: ZSHC 290330Z 12003MPS 9999 -RA SCT040 26/15 Q1011 NOSIG
Conditions at: ZSHC (HANGZHOU/JIANQIA, CN) observed 0330 UTC 29 May 2020
Temperature: 26.0°C (79°F)
Dewpoint: 15.0°C (59°F) [RH = 51%]
Pressure (altimeter): 29.85 inches Hg (1011.0 mb)
Winds: from the ESE (120 degrees) at 7 MPH (6 knots; 3.1 m/s)
Visibility: 6 or more miles (10+ km)
Ceiling: at least 12,000 feet AGL
Clouds: scattered clouds at 4000 feet AGL
Weather: -RA  (light rain)

METAR text: ZSHC 290300Z 12003MPS 9999 -RA SCT040 26/17 Q1011 NOSIG
Conditions at: ZSHC (HANGZHOU/JIANQIA, CN) observed 0300 UTC 29 May 2020
Temperature: 26.0°C (79°F)
Dewpoint: 17.0°C (63°F) [RH = 58%]
Pressure (altimeter): 29.85 inches Hg (1011.0 mb)
Winds: from the ESE (120 degrees) at 7 MPH (6 knots; 3.1 m/s)
Visibility: 6 or more miles (10+ km)
Ceiling: at least 12,000 feet AGL
Clouds: scattered clouds at 4000 feet AGL
Weather: -RA  (light rain)

METAR text: ZSHC 290230Z 13002MPS 070V150 9999 FEW040 26/17 Q1012 NOSIG
Conditions at: ZSHC (HANGZHOU/JIANQIA, CN) observed 0230 UTC 29 May 2020
Temperature: 26.0°C (79°F)
Dewpoint: 17.0°C (63°F) [RH = 58%]
Pressure (altimeter): 29.88 inches Hg (1012.0 mb)
Winds: from the SE (130 degrees) at 5 MPH (4 knots; 2.1 m/s)
Visibility: 6 or more miles (10+ km)
Ceiling: at least 12,000 feet AGL
Clouds: few clouds at 4000 feet AGL
Weather: no significant weather observed at this time

METAR text: ZSHC 290200Z 15002MPS 110V200 9999 SCT040 26/18 Q1011 NOSIG
Conditions at: ZSHC (HANGZHOU/JIANQIA, CN) observed 0200 UTC 29 May 2020
Temperature: 26.0°C (79°F)
Dewpoint: 18.0°C (64°F) [RH = 61%]
Pressure (altimeter): 29.85 inches Hg (1011.0 mb)
Winds: from the SSE (150 degrees) at 5 MPH (4 knots; 2.1 m/s)
Visibility: 6 or more miles (10+ km)
Ceiling: at least 12,000 feet AGL
Clouds: scattered clouds at 4000 feet AGL
Weather: no significant weather observed at this time

METAR text: ZSHC 290130Z 14002MPS 100V170 9999 SCT040 25/18 Q1012 NOSIG
Conditions at: ZSHC (HANGZHOU/JIANQIA, CN) observed 0130 UTC 29 May 2020
Temperature: 25.0°C (77°F)
Dewpoint: 18.0°C (64°F) [RH = 65%]
Pressure (altimeter): 29.88 inches Hg (1012.0 mb)
Winds: from the SE (140 degrees) at 5 MPH (4 knots; 2.1 m/s)
Visibility: 6 or more miles (10+ km)
Ceiling: at least 12,000 feet AGL
Clouds: scattered clouds at 4000 feet AGL
Weather: no significant weather observed at this time

METAR text: ZSHC 290100Z 11002MPS 060V150 9999 SCT040 25/19 Q1012 NOSIG
Conditions at: ZSHC (HANGZHOU/JIANQIA, CN) observed 0100 UTC 29 May 2020
Temperature: 25.0°C (77°F)
Dewpoint: 19.0°C (66°F) [RH = 69%]
Pressure (altimeter): 29.88 inches Hg (1012.0 mb)
Winds: from the ESE (110 degrees) at 5 MPH (4 knots; 2.1 m/s)
Visibility: 6 or more miles (10+ km)
Ceiling: at least 12,000 feet AGL
Clouds: scattered clouds at 4000 feet AGL
Weather: no significant weather observed at this time

METAR text: ZSHC 290030Z VRB01MPS 9999 -RA FEW040 24/20 Q1012 NOSIG
Conditions at: ZSHC (HANGZHOU/JIANQIA, CN) observed 0030 UTC 29 May 2020
Temperature: 24.0°C (75°F)
Dewpoint: 20.0°C (68°F) [RH = 78%]
Pressure (altimeter): 29.88 inches Hg (1012.0 mb)
Winds: variable direction winds at 2 MPH (2 knots; 1.0 m/s)
Visibility: 6 or more miles (10+ km)
Ceiling: at least 12,000 feet AGL
Clouds: few clouds at 4000 feet AGL
Weather: -RA  (light rain)

METAR text: ZSHC 290000Z VRB01MPS 8000 -SHRA NSC 24/20 Q1012 NOSIG
Conditions at: ZSHC (HANGZHOU/JIANQIA, CN) observed 0000 UTC 29 May 2020
Temperature: 24.0°C (75°F)
Dewpoint: 20.0°C (68°F) [RH = 78%]
Pressure (altimeter): 29.88 inches Hg (1012.0 mb)
Winds: variable direction winds at 2 MPH (2 knots; 1.0 m/s)
Visibility: 5 miles ( 8 km)
Ceiling: at least 12,000 feet AGL
Clouds: sky clear below 12,000 feet AGL
Weather: -SHRA  (light rain showers)

METAR text: ZSHC 282330Z 23001MPS 7000 NSC 24/20 Q1012 NOSIG
Conditions at: ZSHC (HANGZHOU/JIANQIA, CN) observed 2330 UTC 28 May 2020
Temperature: 24.0°C (75°F)
Dewpoint: 20.0°C (68°F) [RH = 78%]
Pressure (altimeter): 29.88 inches Hg (1012.0 mb)
Winds: from the SW (230 degrees) at 2 MPH (2 knots; 1.0 m/s)
Visibility: 4 miles ( 7 km)
Ceiling: at least 12,000 feet AGL
Clouds: sky clear below 12,000 feet AGL
Weather: no significant weather observed at this time

METAR text: ZSHC 282300Z 29002MPS 7000 NSC 23/20 Q1012 NOSIG
Conditions at: ZSHC (HANGZHOU/JIANQIA, CN) observed 2300 UTC 28 May 2020
Temperature: 23.0°C (73°F)
Dewpoint: 20.0°C (68°F) [RH = 83%]
Pressure (altimeter): 29.88 inches Hg (1012.0 mb)
Winds: from the WNW (290 degrees) at 5 MPH (4 knots; 2.1 m/s)
Visibility: 4 miles ( 7 km)
Ceiling: at least 12,000 feet AGL
Clouds: sky clear below 12,000 feet AGL
Weather: no significant weather observed at this time

METAR text: ZSHC 282230Z 24001MPS 7000 NSC 22/20 Q1012 NOSIG
Conditions at: ZSHC (HANGZHOU/JIANQIA, CN) observed 2230 UTC 28 May 2020
Temperature: 22.0°C (72°F)
Dewpoint: 20.0°C (68°F) [RH = 88%]
Pressure (altimeter): 29.88 inches Hg (1012.0 mb)
Winds: from the WSW (240 degrees) at 2 MPH (2 knots; 1.0 m/s)
Visibility: 4 miles ( 7 km)
Ceiling: at least 12,000 feet AGL
Clouds: sky clear below 12,000 feet AGL
Weather: no significant weather observed at this time

METAR text: ZSHC 282200Z 26001MPS 7000 NSC 22/20 Q1011 NOSIG
Conditions at: ZSHC (HANGZHOU/JIANQIA, CN) observed 2200 UTC 28 May 2020
Temperature: 22.0°C (72°F)
Dewpoint: 20.0°C (68°F) [RH = 88%]
Pressure (altimeter): 29.85 inches Hg (1011.0 mb)
Winds: from the W (260 degrees) at 2 MPH (2 knots; 1.0 m/s)
Visibility: 4 miles ( 7 km)
Ceiling: at least 12,000 feet AGL
Clouds: sky clear below 12,000 feet AGL
Weather: no significant weather observed at this time

METAR text: ZSHC 282130Z VRB01MPS 7000 NSC 22/20 Q1011 NOSIG
Conditions at: ZSHC (HANGZHOU/JIANQIA, CN) observed 2130 UTC 28 May 2020
Temperature: 22.0°C (72°F)
Dewpoint: 20.0°C (68°F) [RH = 88%]
Pressure (altimeter): 29.85 inches Hg (1011.0 mb)
Winds: variable direction winds at 2 MPH (2 knots; 1.0 m/s)
Visibility: 4 miles ( 7 km)
Ceiling: at least 12,000 feet AGL
Clouds: sky clear below 12,000 feet AGL
Weather: no significant weather observed at this time

METAR text: ZSHC 282100Z 24001MPS 6000 NSC 22/20 Q1011 NOSIG
Conditions at: ZSHC (HANGZHOU/JIANQIA, CN) observed 2100 UTC 28 May 2020
Temperature: 22.0°C (72°F)
Dewpoint: 20.0°C (68°F) [RH = 88%]
Pressure (altimeter): 29.85 inches Hg (1011.0 mb)
Winds: from the WSW (240 degrees) at 2 MPH (2 knots; 1.0 m/s)
Visibility: 4 miles ( 6 km)
Ceiling: at least 12,000 feet AGL
Clouds: sky clear below 12,000 feet AGL
Weather: no significant weather observed at this time

METAR text: ZSHC 282030Z 00000MPS 6000 NSC 22/20 Q1011 NOSIG
Conditions at: ZSHC (HANGZHOU/JIANQIA, CN) observed 2030 UTC 28 May 2020
Temperature: 22.0°C (72°F)
Dewpoint: 20.0°C (68°F) [RH = 88%]
Pressure (altimeter): 29.85 inches Hg (1011.0 mb)
Winds: calm
Visibility: 4 miles ( 6 km)
Ceiling: at least 12,000 feet AGL
Clouds: sky clear below 12,000 feet AGL
Weather: no significant weather observed at this time

METAR text: ZSHC 282000Z 18001MPS 5000 BR NSC 22/20 Q1011 NOSIG
Conditions at: ZSHC (HANGZHOU/JIANQIA, CN) observed 2000 UTC 28 May 2020
Temperature: 22.0°C (72°F)
Dewpoint: 20.0°C (68°F) [RH = 88%]
Pressure (altimeter): 29.85 inches Hg (1011.0 mb)
Winds: from the S (180 degrees) at 2 MPH (2 knots; 1.0 m/s)
Visibility: 3 miles ( 5 km)
Ceiling: at least 12,000 feet AGL
Clouds: sky clear below 12,000 feet AGL
Weather: BR  (mist)

METAR text: ZSHC 281930Z 22001MPS 5000 BR NSC 22/20 Q1011 NOSIG
Conditions at: ZSHC (HANGZHOU/JIANQIA, CN) observed 1930 UTC 28 May 2020
Temperature: 22.0°C (72°F)
Dewpoint: 20.0°C (68°F) [RH = 88%]
Pressure (altimeter): 29.85 inches Hg (1011.0 mb)
Winds: from the SW (220 degrees) at 2 MPH (2 knots; 1.0 m/s)
Visibility: 3 miles ( 5 km)
Ceiling: at least 12,000 feet AGL
Clouds: sky clear below 12,000 feet AGL
Weather: BR  (mist)

METAR text: ZSHC 281900Z VRB01MPS 5000 BR NSC 22/20 Q1011 NOSIG
Conditions at: ZSHC (HANGZHOU/JIANQIA, CN) observed 1900 UTC 28 May 2020
Temperature: 22.0°C (72°F)
Dewpoint: 20.0°C (68°F) [RH = 88%]
Pressure (altimeter): 29.85 inches Hg (1011.0 mb)
Winds: variable direction winds at 2 MPH (2 knots; 1.0 m/s)
Visibility: 3 miles ( 5 km)
Ceiling: at least 12,000 feet AGL
Clouds: sky clear below 12,000 feet AGL
Weather: BR  (mist)

METAR text: ZSHC 281830Z 00000MPS 5000 BR NSC 22/20 Q1011 NOSIG
Conditions at: ZSHC (HANGZHOU/JIANQIA, CN) observed 1830 UTC 28 May 2020
Temperature: 22.0°C (72°F)
Dewpoint: 20.0°C (68°F) [RH = 88%]
Pressure (altimeter): 29.85 inches Hg (1011.0 mb)
Winds: calm
Visibility: 3 miles ( 5 km)
Ceiling: at least 12,000 feet AGL
Clouds: sky clear below 12,000 feet AGL
Weather: BR  (mist)

METAR text: ZSHC 281800Z 00000MPS 6000 NSC 22/20 Q1011 NOSIG
Conditions at: ZSHC (HANGZHOU/JIANQIA, CN) observed 1800 UTC 28 May 2020
Temperature: 22.0°C (72°F)
Dewpoint: 20.0°C (68°F) [RH = 88%]
Pressure (altimeter): 29.85 inches Hg (1011.0 mb)
Winds: calm
Visibility: 4 miles ( 6 km)
Ceiling: at least 12,000 feet AGL
Clouds: sky clear below 12,000 feet AGL
Weather: no significant weather observed at this time

METAR text: ZSHC 281730Z 00000MPS 6000 NSC 22/20 Q1011 NOSIG
Conditions at: ZSHC (HANGZHOU/JIANQIA, CN) observed 1730 UTC 28 May 2020
Temperature: 22.0°C (72°F)
Dewpoint: 20.0°C (68°F) [RH = 88%]
Pressure (altimeter): 29.85 inches Hg (1011.0 mb)
Winds: calm
Visibility: 4 miles ( 6 km)
Ceiling: at least 12,000 feet AGL
Clouds: sky clear below 12,000 feet AGL
Weather: no significant weather observed at this time

METAR text: ZSHC 281700Z 18001MPS 6000 NSC 22/20 Q1011 NOSIG
Conditions at: ZSHC (HANGZHOU/JIANQIA, CN) observed 1700 UTC 28 May 2020
Temperature: 22.0°C (72°F)
Dewpoint: 20.0°C (68°F) [RH = 88%]
Pressure (altimeter): 29.85 inches Hg (1011.0 mb)
Winds: from the S (180 degrees) at 2 MPH (2 knots; 1.0 m/s)
Visibility: 4 miles ( 6 km)
Ceiling: at least 12,000 feet AGL
Clouds: sky clear below 12,000 feet AGL
Weather: no significant weather observed at this time

METAR text: ZSHC 281300Z 00000MPS CAVOK 24/19 Q1011 NOSIG
Conditions at: ZSHC (HANGZHOU/JIANQIA, CN) observed 1300 UTC 28 May 2020
Temperature: 24.0°C (75°F)
Dewpoint: 19.0°C (66°F) [RH = 74%]
Pressure (altimeter): 29.85 inches Hg (1011.0 mb)
Winds: calm
Visibility: 6 or more miles (10+ km)
Ceiling: ceiling and visibility are OK
Clouds: unknown
Weather: no significant weather observed at this time

METAR text: ZSHC 281230Z 00000MPS CAVOK 25/19 Q1011 NOSIG
Conditions at: ZSHC (HANGZHOU/JIANQIA, CN) observed 1230 UTC 28 May 2020
Temperature: 25.0°C (77°F)
Dewpoint: 19.0°C (66°F) [RH = 69%]
Pressure (altimeter): 29.85 inches Hg (1011.0 mb)
Winds: calm
Visibility: 6 or more miles (10+ km)
Ceiling: ceiling and visibility are OK
Clouds: unknown
Weather: no significant weather observed at this time

Forecast for: ZSHC (HANGZHOU/JIANQIA, CN)
Text: TAF ZSHC 292116Z 3000/3024 09003MPS 3000 BR BKN008 BKN020 TX24/3006Z TN19/3021Z
Forecast period: 0000 to 0200 UTC 30 May 2020
Forecast type: FROM: standard forecast or significant change
Winds: from the E (90 degrees) at 7 MPH (6 knots; 3.1 m/s)
Visibility: 1.86 miles (2.99 km)
Ceiling: 800 feet AGL
Clouds: broken clouds at 800 feet AGL
broken clouds at 2000 feet AGL
Weather: BR  (mist)
Text: BECMG 3002/3003 BKN020
Forecast period: 0200 UTC 30 May 2020 to 0000 UTC 31 May 2020
Forecast type: BECOMING: Conditions expected to become as follows by 0300 UTC 30 May 2020
Winds: from the E (90 degrees) at 7 MPH (6 knots; 3.1 m/s)
Visibility: 1.86 miles (2.99 km)
Ceiling: 2000 feet AGL
Clouds: broken clouds at 2000 feet AGL
Weather: BR  (mist)